FW8888 Weather Reports


Display with metric or nautical units.
time (UTC)temp
F
wind
direction
speed
MPH
gust
MPH
rain 1hr
in
rain 24hr
in
rain mn
in
humidity
%
barometer
mb
20210619153116 89 238 2.0 5.0 0.00 0.00 0.00 55 1015.7
20210619151635 88 0 1.0 4.0 0.00 0.00 0.00 55 1015.8
20210619150122 85 247 1.0 6.0 0.00 0.00 0.00 61 1015.6
20210619144703 83 0 2.0 5.0 0.00 0.00 0.00 65 1015.5
20210619143156 82 224 1.0 4.0 0.00 0.00 0.00 67 1015.5
20210619141710 82 218 1.0 6.0 0.00 0.00 0.00 67 1015.6
20210619140202 81 221 2.0 5.0 0.00 0.00 0.00 68 1015.5
20210619134643 81 232 1.0 4.0 0.00 0.00 0.00 71 1015.6
20210619133151 80 224 1.0 5.0 0.00 0.00 0.00 71 1015.5
20210619131648 79 217 1.0 6.0 0.00 0.00 0.00 72 1015.3
20210619130124 79 226 0.0 4.0 0.00 0.00 0.00 73 1015.1
20210619124818 78 231 1.0 4.0 0.00 0.00 0.00 74 1015.0
20210619123119 77 215 1.0 5.0 0.00 0.00 0.00 75 1015.0
20210619121604 76 200 1.0 5.0 0.00 0.00 0.00 77 1015.0
20210619120246 76 0 0.0 4.0 0.00 0.00 0.00 77 1015.1
20210619114635 76 0 1.0 5.0 0.00 0.00 0.00 77 1014.8
20210619113129 75 214 1.0 5.0 0.00 0.00 0.00 77 1014.8
20210619111603 75 231 1.0 4.0 0.00 0.00 0.00 78 1014.9
20210619110130 74 231 1.0 4.0 0.00 0.00 0.00 78 1014.7
20210619104828 74 0 2.0 5.0 0.00 0.00 0.00 78 1014.7
20210619103136 74 224 1.0 4.0 0.00 0.00 0.00 78 1014.9
20210619101644 74 219 1.0 5.0 0.00 0.00 0.00 78 1015.0
20210619100202 73 238 0.0 5.0 0.00 0.00 0.00 79 1014.9
20210619094616 73 219 1.0 3.0 0.00 0.00 0.00 78 1015.0
20210619093148 74 234 1.0 5.0 0.00 0.00 0.00 78 1015.1
20210619091708 74 232 0.0 4.0 0.00 0.00 0.00 78 1015.1
20210619090119 74 209 0.0 3.0 0.00 0.00 0.00 77 1015.1
20210619084641 74 219 1.0 4.0 0.00 0.00 0.00 76 1015.1
20210619083128 74 217 1.0 4.0 0.00 0.00 0.00 75 1015.3
20210619081613 74 231 0.0 4.0 0.00 0.00 0.00 75 1015.5
20210619080134 75 0 0.0 3.0 0.00 0.00 0.00 75 1015.7
20210619074650 75 240 1.0 3.0 0.00 0.00 0.00 73 1015.7
20210619073234 75 245 0.0 4.0 0.00 0.00 0.00 73 1015.4
20210619071730 75 0 0.0 4.0 0.00 0.00 0.00 73 1015.4
20210619070225 75 237 1.0 4.0 0.00 0.00 0.00 72 1015.4
20210619064656 74 228 0.0 4.0 0.00 0.00 0.00 73 1015.4
20210619063112 74 231 0.0 2.0 0.00 0.00 0.00 71 1015.5
20210619061608 75 0 0.0 2.0 0.00 0.00 0.00 69 1015.9
20210619060125 75 240 0.0 3.0 0.00 0.00 0.00 69 1016.2
20210619054634 75 231 0.0 2.0 0.00 0.00 0.00 69 1016.2
20210619053405 75 230 0.0 1.0 0.00 0.00 0.00 66 1016.1
20210619043111 76 237 0.0 2.0 0.00 0.00 0.00 59 1016.4
20210619041708 76 0 0.0 3.0 0.00 0.00 0.00 62 1016.4
20210619040208 77 233 0.0 1.0 0.00 0.00 0.00 61 1016.1
20210619034548 77 0 0.0 1.0 0.00 0.00 0.00 61 1016.0
20210619033247 77 243 0.0 4.0 0.00 0.00 0.00 61 1016.1
20210619031607 76 246 1.0 3.0 0.00 0.00 0.00 64 1016.1
20210619030123 72 238 0.0 1.0 0.00 0.00 0.00 73 1016.1
20210619024556 72 0 0.0 0.0 0.00 0.00 0.00 79 1016.2
20210619023135 72 0 0.0 1.0 0.00 0.00 0.00 78 1016.6
20210619021635 72 0 0.0 0.0 0.00 0.00 0.00 76 1016.6
20210619020114 73 0 0.0 0.0 0.00 0.00 0.00 74 1016.6
20210619014651 73 0 0.0 0.0 0.00 0.00 0.00 72 1016.7
20210619013109 74 0 0.0 0.0 0.00 0.00 0.00 72 1016.5
20210619011705 75 0 0.0 0.0 0.00 0.00 0.00 70 1016.3
20210619010210 76 0 0.0 0.0 0.00 0.00 0.00 66 1016.0
20210619004611 77 0 0.0 0.0 0.00 0.00 0.00 65 1016.0
20210619003120 79 0 0.0 1.0 0.00 0.00 0.00 61 1015.8
20210619001653 80 0 0.0 0.0 0.00 0.00 0.00 59 1016.0
20210619000118 82 0 0.0 1.0 0.00 0.00 0.00 57 1015.9
20210618234711 83 0 0.0 1.0 0.00 0.00 0.00 48 1015.9
20210618233104 84 221 0.0 2.0 0.00 0.00 0.00 46 1015.5
20210618231624 84 227 1.0 3.0 0.00 0.00 0.00 44 1015.5
20210618230116 85 0 1.0 3.0 0.00 0.00 0.00 44 1015.3
20210618224706 85 219 1.0 3.0 0.00 0.00 0.00 45 1015.5
20210618223203 85 221 1.0 4.0 0.00 0.00 0.00 43 1015.8
20210618221622 86 255 1.0 3.0 0.00 0.00 0.00 45 1016.3
20210618220211 86 238 0.0 4.0 0.00 0.00 0.00 43 1016.3
20210618214635 86 0 1.0 5.0 0.00 0.00 0.00 44 1016.5
20210618213116 86 228 0.0 5.0 0.00 0.00 0.00 43 1016.6
20210618211617 86 320 0.0 4.0 0.00 0.00 0.00 43 1016.8
20210618210133 86 0 0.0 3.0 0.00 0.00 0.00 42 1017.0
20210618204654 86 245 1.0 6.0 0.00 0.00 0.00 44 1017.2
20210618203125 86 239 1.0 4.0 0.00 0.00 0.00 45 1017.4
20210618201602 86 243 2.0 6.0 0.00 0.00 0.00 42 1017.6
20210618200108 86 0 1.0 4.0 0.00 0.00 0.00 43 1017.9
20210618194654 86 241 2.0 7.0 0.00 0.00 0.00 41 1018.0
20210618193108 85 0 0.0 4.0 0.00 0.00 0.00 42 1018.1
20210618191841 86 232 2.0 5.0 0.00 0.00 0.00 44 1018.4
20210618190207 86 221 0.0 5.0 0.00 0.00 0.00 43 1018.4
20210618184605 86 0 0.0 4.0 0.00 0.00 0.00 41 1018.3
20210618183200 86 231 1.0 3.0 0.00 0.00 0.00 39 1018.7
20210618181627 85 222 2.0 6.0 0.00 0.00 0.00 39 1018.8
20210618180109 85 250 0.0 5.0 0.00 0.00 0.00 40 1018.9
20210618174645 84 250 0.0 4.0 0.00 0.00 0.00 40 1018.9
20210618173135 84 235 0.0 4.0 0.00 0.00 0.00 42 1019.3
20210618171728 83 243 1.0 6.0 0.00 0.00 0.00 40 1019.4
20210618170234 84 0 2.0 5.0 0.00 0.00 0.00 38 1019.4
20210618164619 84 233 1.0 4.0 0.00 0.00 0.00 39 1019.4
20210618163127 85 214 2.0 7.0 0.00 0.00 0.00 40 1019.4
20210618161621 85 221 1.0 3.0 0.00 0.00 0.00 41 1019.5
20210618160136 85 224 1.0 3.0 0.00 0.00 0.00 41 1019.7
20210618154623 84 207 2.0 5.0 0.00 0.00 0.00 43 1019.6